Time;durP1;ratioP1;P1;durP2;ratioP2;P2;SDS_P1;SDS_P2;PMS_P1;PMS_P2;Temp;Humidity;BMP_temperature;BMP_pressure;BME280_temperature;BME280_humidity;BME280_pressure;Samples;Min_cycle;Max_cycle;Signal;HPM_P1;HPM_P2
2021/11/22 00:01:45;;;;;;;18.75;7.28;;;;;;;2.34;100.00;101325.09;5032860;28;20045;-68
2021/11/22 00:04:13;;;;;;;13.73;6.10;;;;;;;2.29;100.00;101317.50;5034548;28;20052;-68
2021/11/22 00:06:41;;;;;;;20.08;6.07;;;;;;;2.27;100.00;101324.66;5035810;28;20037;-68
2021/11/22 00:09:09;;;;;;;17.67;6.38;;;;;;;2.34;100.00;101325.09;5039936;28;20052;-68
2021/11/22 00:11:38;;;;;;;19.35;6.78;;;;;;;2.39;100.00;101323.84;5038841;28;20052;-68
2021/11/22 00:14:06;;;;;;;14.32;6.80;;;;;;;2.41;100.00;101324.63;5042312;28;20112;-71
2021/11/22 00:16:34;;;;;;;15.48;6.55;;;;;;;2.48;100.00;101330.38;5044367;28;20103;-68
2021/11/22 00:19:02;;;;;;;16.15;6.88;;;;;;;2.38;100.00;101332.72;5040893;28;20068;-68
2021/11/22 00:21:30;;;;;;;13.38;6.35;;;;;;;2.20;100.00;101329.47;5045025;28;20060;-68
2021/11/22 00:23:58;;;;;;;15.57;6.57;;;;;;;2.29;100.00;101333.31;5042034;28;20120;-68
2021/11/22 00:26:26;;;;;;;17.10;6.22;;;;;;;2.41;100.00;101334.34;5042417;28;20041;-68
2021/11/22 00:28:55;;;;;;;18.63;6.45;;;;;;;2.58;100.00;101346.44;5047012;28;20112;-70
2021/11/22 00:31:23;;;;;;;16.20;6.18;;;;;;;2.74;100.00;101344.50;5041627;28;20053;-71
2021/11/22 00:33:52;;;;;;;11.63;4.82;;;;;;;2.53;100.00;101351.16;5043420;28;20137;-70
2021/11/22 00:36:21;;;;;;;10.85;5.03;;;;;;;2.47;100.00;101341.84;5043484;28;20041;-68
2021/11/22 00:38:49;;;;;;;13.27;5.43;;;;;;;2.61;100.00;101351.50;5042706;28;20047;-68
2021/11/22 00:41:17;;;;;;;16.90;4.80;;;;;;;2.65;100.00;101350.38;5041779;28;20052;-68
2021/11/22 00:43:45;;;;;;;13.60;5.30;;;;;;;2.60;100.00;101355.09;5038067;28;20163;-68
2021/11/22 00:46:14;;;;;;;8.38;3.47;;;;;;;2.78;100.00;101350.44;5041592;28;20353;-68
2021/11/22 00:48:42;;;;;;;9.75;3.80;;;;;;;2.76;100.00;101352.31;5041602;28;20049;-70
2021/11/22 00:51:10;;;;;;;13.10;3.10;;;;;;;2.79;100.00;101351.25;5043926;28;20489;-70
2021/11/22 00:53:38;;;;;;;10.93;3.58;;;;;;;2.88;100.00;101356.78;5043814;28;20045;-71
2021/11/22 00:56:06;;;;;;;14.13;4.22;;;;;;;2.89;100.00;101365.53;5039406;28;20037;-71
2021/11/22 00:58:34;;;;;;;12.10;3.70;;;;;;;2.90;100.00;101359.31;5042165;28;20334;-69
2021/11/22 01:01:02;;;;;;;5.75;3.00;;;;;;;2.95;100.00;101372.22;5039353;28;20323;-70
2021/11/22 01:03:31;;;;;;;16.25;3.30;;;;;;;2.96;100.00;101374.75;5038938;28;20086;-68
2021/11/22 01:06:00;;;;;;;10.50;2.90;;;;;;;2.90;100.00;101381.28;5041983;28;20045;-71
2021/11/22 01:08:27;;;;;;;9.30;2.75;;;;;;;3.12;100.00;101384.31;5037583;28;20084;-71
2021/11/22 01:10:56;;;;;;;12.32;3.15;;;;;;;3.07;100.00;101382.81;5042742;28;20049;-71
2021/11/22 01:13:24;;;;;;;8.05;3.50;;;;;;;3.07;100.00;101388.09;5042599;28;20049;-71
2021/11/22 01:15:51;;;;;;;8.82;2.85;;;;;;;3.22;100.00;101393.34;5044524;28;20041;-71
2021/11/22 01:18:19;;;;;;;8.35;2.53;;;;;;;3.32;100.00;101393.53;5042822;28;20040;-71
2021/11/22 01:20:49;;;;;;;14.63;2.70;;;;;;;3.35;100.00;101394.19;5038913;28;20037;-70
2021/11/22 01:23:17;;;;;;;4.47;2.65;;;;;;;3.33;100.00;101395.25;5042409;28;20376;-70
2021/11/22 01:25:45;;;;;;;7.88;3.05;;;;;;;3.55;100.00;101400.78;5042681;28;20151;-70
2021/11/22 01:28:14;;;;;;;16.55;2.80;;;;;;;3.57;100.00;101404.19;5040492;28;20433;-70
2021/11/22 01:30:42;;;;;;;6.30;2.13;;;;;;;3.56;100.00;101406.94;5042614;28;20110;-71
2021/11/22 01:33:13;;;;;;;8.45;2.42;;;;;;;3.69;100.00;101410.41;5043729;28;20099;-70
2021/11/22 01:35:42;;;;;;;8.88;2.28;;;;;;;3.57;100.00;101413.88;5042904;28;20068;-70
2021/11/22 01:38:11;;;;;;;8.75;2.38;;;;;;;3.59;100.00;101419.94;5038289;28;20037;-70
2021/11/22 01:40:40;;;;;;;4.70;1.65;;;;;;;3.61;100.00;101418.00;5042296;28;20058;-71
2021/11/22 01:43:08;;;;;;;13.20;2.85;;;;;;;3.59;100.00;101420.75;5037841;28;20044;-71
2021/11/22 01:45:37;;;;;;;10.32;2.30;;;;;;;3.67;100.00;101416.75;5041945;28;20048;-70
2021/11/22 01:48:06;;;;;;;7.80;2.53;;;;;;;3.71;100.00;101424.34;5043346;28;20041;-70
2021/11/22 01:50:34;;;;;;;5.07;2.50;;;;;;;3.58;100.00;101428.78;5040667;28;20288;-70
2021/11/22 01:53:02;;;;;;;5.07;1.90;;;;;;;3.57;100.00;101430.59;5038569;28;20383;-68
2021/11/22 01:55:32;;;;;;;9.60;2.75;;;;;;;3.68;100.00;101435.13;5038687;28;20107;-69
2021/11/22 01:58:00;;;;;;;8.82;2.70;;;;;;;3.69;100.00;101439.47;5040203;28;20088;-68
2021/11/22 02:00:31;;;;;;;4.18;2.08;;;;;;;3.82;100.00;101430.72;5044592;28;20041;-70
2021/11/22 02:03:00;;;;;;;7.63;1.88;;;;;;;3.72;100.00;101439.28;5040785;28;20037;-71
2021/11/22 02:05:28;;;;;;;7.78;2.53;;;;;;;3.71;100.00;101437.56;5037590;28;20049;-70
2021/11/22 02:07:56;;;;;;;7.68;2.13;;;;;;;3.68;100.00;101442.22;5043414;28;20428;-68
2021/11/22 02:10:25;;;;;;;8.93;2.35;;;;;;;3.76;100.00;101447.84;5043268;28;20040;-71
2021/11/22 02:12:55;;;;;;;4.22;2.35;;;;;;;3.74;100.00;101447.97;5038976;28;20115;-69
2021/11/22 02:15:23;;;;;;;6.95;2.33;;;;;;;3.66;100.00;101455.53;5042252;28;20052;-69
2021/11/22 02:17:52;;;;;;;6.93;2.28;;;;;;;3.70;100.00;101454.38;5042365;28;20095;-69
2021/11/22 02:20:24;;;;;;;6.97;2.63;;;;;;;3.67;100.00;101449.31;5040647;28;20053;-69
2021/11/22 02:22:54;;;;;;;8.63;2.28;;;;;;;3.74;100.00;101453.25;5038679;28;20049;-69
2021/11/22 02:25:24;;;;;;;7.72;3.28;;;;;;;3.69;100.00;101451.84;5044192;28;20303;-70
2021/11/22 02:27:53;;;;;;;10.18;3.30;;;;;;;3.59;100.00;101457.72;5041802;28;20037;-69
2021/11/22 02:30:24;;;;;;;6.10;2.17;;;;;;;3.74;100.00;101455.00;5041197;28;20057;-69
2021/11/22 02:32:52;;;;;;;10.88;2.88;;;;;;;3.71;100.00;101463.16;5039212;28;20202;-68
2021/11/22 02:35:22;;;;;;;9.23;2.30;;;;;;;3.66;100.00;101467.88;5040008;28;20056;-69
2021/11/22 02:37:50;;;;;;;5.25;2.05;;;;;;;3.65;100.00;101467.06;5040155;28;20038;-69
2021/11/22 02:40:18;;;;;;;9.30;2.28;;;;;;;3.65;100.00;101464.41;5041428;28;20263;-69
2021/11/22 02:42:47;;;;;;;7.68;2.58;;;;;;;3.67;100.00;101470.44;5042707;28;20334;-69
2021/11/22 02:45:17;;;;;;;6.45;2.35;;;;;;;3.53;100.00;101470.50;5039402;28;20045;-69
2021/11/22 02:47:46;;;;;;;7.90;2.88;;;;;;;3.54;100.00;101470.38;5040365;28;20511;-69
2021/11/22 02:50:15;;;;;;;5.63;2.63;;;;;;;3.54;100.00;101475.66;5037257;28;20795;-69
2021/11/22 02:52:44;;;;;;;5.35;2.60;;;;;;;3.52;100.00;101482.03;5040696;28;20044;-68
2021/11/22 02:55:14;;;;;;;10.18;2.55;;;;;;;3.50;100.00;101473.34;5035202;28;20045;-69
2021/11/22 02:57:43;;;;;;;5.60;2.30;;;;;;;3.47;100.00;101484.94;5040154;28;20049;-68
2021/11/22 03:00:15;;;;;;;6.60;3.03;;;;;;;3.57;100.00;101493.13;5040876;28;20052;-69
2021/11/22 03:02:43;;;;;;;3.95;1.90;;;;;;;3.43;100.00;101492.25;5041626;28;20049;-69
2021/11/22 03:05:12;;;;;;;7.55;1.90;;;;;;;3.41;100.00;101493.28;5038052;28;20049;-69
2021/11/22 03:07:40;;;;;;;3.55;1.88;;;;;;;3.54;100.00;101501.25;5042644;28;20512;-69
2021/11/22 03:10:12;;;;;;;5.47;2.30;;;;;;;3.47;100.00;101511.34;5042472;28;20633;-69
2021/11/22 03:12:40;;;;;;;5.20;2.63;;;;;;;3.45;100.00;101505.34;5033188;28;20045;-69
2021/11/22 03:15:10;;;;;;;9.38;2.60;;;;;;;3.40;100.00;101507.44;5038815;28;20041;-68
2021/11/22 03:17:41;;;;;;;6.88;2.40;;;;;;;3.40;100.00;101510.94;5036779;28;20480;-69
2021/11/22 03:20:11;;;;;;;5.22;2.63;;;;;;;3.43;100.00;101504.56;5035358;28;20119;-69
2021/11/22 03:22:40;;;;;;;4.60;2.47;;;;;;;3.49;100.00;101524.47;5042467;28;20061;-69
2021/11/22 03:25:11;;;;;;;9.63;2.45;;;;;;;3.39;100.00;101522.44;5036520;28;20045;-69
2021/11/22 03:27:40;;;;;;;7.15;3.25;;;;;;;3.40;100.00;101526.78;5043441;28;20049;-69
2021/11/22 03:30:08;;;;;;;8.15;3.47;;;;;;;3.49;100.00;101524.47;5041162;28;20048;-69
2021/11/22 03:32:36;;;;;;;6.40;2.13;;;;;;;3.38;100.00;101533.94;5036144;28;20045;-69
2021/11/22 03:35:06;;;;;;;4.40;2.38;;;;;;;3.39;100.00;101530.34;5038096;28;20821;-69
2021/11/22 03:37:34;;;;;;;7.60;2.55;;;;;;;3.39;100.00;101540.06;5036474;28;20041;-69
2021/11/22 03:40:02;;;;;;;6.85;2.33;;;;;;;3.32;100.00;101555.47;5039459;28;20041;-69
2021/11/22 03:42:38;;;;;;;9.63;2.58;;;;;;;3.38;100.00;101555.06;5036643;28;20045;-69
2021/11/22 03:45:06;;;;;;;7.72;2.67;;;;;;;3.31;100.00;101547.63;5035823;28;20049;-69
2021/11/22 03:47:35;;;;;;;5.68;2.83;;;;;;;3.42;100.00;101556.56;5036499;28;20050;-69
2021/11/22 03:50:04;;;;;;;8.20;2.25;;;;;;;3.41;100.00;101560.13;5034668;28;20045;-69
2021/11/22 03:52:32;;;;;;;5.25;2.45;;;;;;;3.39;100.00;101561.19;5038193;28;20225;-69
2021/11/22 03:55:00;;;;;;;5.80;2.25;;;;;;;3.40;100.00;101563.75;5036677;28;20564;-69
2021/11/22 03:57:28;;;;;;;6.53;2.47;;;;;;;3.41;100.00;101562.78;5040857;28;20045;-69
2021/11/22 03:59:58;;;;;;;5.10;2.30;;;;;;;3.30;100.00;101567.91;5042860;28;20068;-69
2021/11/22 04:02:27;;;;;;;10.45;2.83;;;;;;;3.36;100.00;101572.81;5036601;28;20428;-69
2021/11/22 04:04:55;;;;;;;4.45;2.63;;;;;;;3.25;100.00;101583.19;5040682;28;20052;-69
2021/11/22 04:07:23;;;;;;;4.50;2.13;;;;;;;3.38;100.00;101576.19;5035757;28;20052;-69
2021/11/22 04:09:53;;;;;;;5.70;3.33;;;;;;;3.28;100.00;101578.56;5040077;28;20507;-69
2021/11/22 04:12:21;;;;;;;6.72;3.47;;;;;;;3.15;100.00;101579.41;5039464;28;20526;-69
2021/11/22 04:14:49;;;;;;;5.10;2.33;;;;;;;3.32;100.00;101581.00;5036971;28;20104;-68
2021/11/22 04:17:18;;;;;;;5.75;2.22;;;;;;;3.24;100.00;101589.41;5255030;23;20052;-63
2021/11/22 04:19:47;;;;;;;5.40;2.45;;;;;;;3.30;100.00;101596.94;5035764;28;20443;-63
2021/11/22 04:22:15;;;;;;;11.25;2.83;;;;;;;3.20;100.00;101601.09;5036307;28;20053;-63
2021/11/22 04:24:43;;;;;;;6.85;2.55;;;;;;;3.07;100.00;101607.13;5042570;28;20052;-63
2021/11/22 04:27:12;;;;;;;4.97;2.72;;;;;;;3.10;100.00;101608.75;5039015;28;20091;-63
2021/11/22 04:29:40;;;;;;;5.90;3.15;;;;;;;3.13;100.00;101602.44;5037840;28;20045;-63
2021/11/22 04:32:09;;;;;;;8.80;2.60;;;;;;;3.04;100.00;101615.25;5039510;28;20271;-64
2021/11/22 04:34:38;;;;;;;6.45;2.70;;;;;;;3.05;100.00;101622.22;5037312;28;20607;-63
2021/11/22 04:37:07;;;;;;;5.47;2.65;;;;;;;3.02;100.00;101625.06;5040077;28;20052;-63
2021/11/22 04:39:36;;;;;;;6.53;2.95;;;;;;;2.97;100.00;101628.94;5036872;28;20044;-63
2021/11/22 04:42:04;;;;;;;5.50;4.07;;;;;;;2.96;100.00;101627.22;5038241;28;20041;-64
2021/11/22 04:44:32;;;;;;;4.90;2.45;;;;;;;2.98;100.00;101630.59;5037293;28;20048;-64
2021/11/22 04:47:01;;;;;;;5.45;2.30;;;;;;;3.05;100.00;101632.78;5037314;28;20111;-63
2021/11/22 04:49:30;;;;;;;6.80;2.33;;;;;;;3.09;100.00;101639.59;5039594;28;20120;-64
2021/11/22 04:51:59;;;;;;;6.15;2.17;;;;;;;3.03;100.00;101637.28;5038639;28;20451;-63
2021/11/22 04:54:27;;;;;;;6.55;2.78;;;;;;;2.92;100.00;101637.09;5037805;28;20321;-63
2021/11/22 04:56:55;;;;;;;3.85;2.08;;;;;;;2.96;100.00;101641.25;5037311;28;20041;-63
2021/11/22 04:59:23;;;;;;;3.40;2.35;;;;;;;3.09;100.00;101638.72;5041674;28;20044;-63
2021/11/22 05:01:51;;;;;;;8.75;2.72;;;;;;;3.01;100.00;101647.13;5043958;28;20049;-63
2021/11/22 05:04:19;;;;;;;5.82;2.60;;;;;;;3.00;100.00;101647.22;5040590;28;20523;-63
2021/11/22 05:06:47;;;;;;;5.55;3.15;;;;;;;3.32;100.00;101655.78;5043856;28;20126;-64
2021/11/22 05:09:17;;;;;;;8.93;2.72;;;;;;;3.16;100.00;101655.91;5043824;28;20033;-63
2021/11/22 05:11:45;;;;;;;6.47;2.40;;;;;;;3.29;100.00;101666.53;5041934;28;20049;-63
2021/11/22 05:14:13;;;;;;;4.80;2.53;;;;;;;3.20;100.00;101656.53;5040383;28;20036;-63
2021/11/22 05:16:40;;;;;;;6.63;2.45;;;;;;;3.26;100.00;101661.44;5039196;28;20203;-63
2021/11/22 05:19:08;;;;;;;5.68;2.63;;;;;;;3.26;100.00;101662.28;5041538;28;20371;-63
2021/11/22 05:21:36;;;;;;;3.40;2.50;;;;;;;3.25;100.00;101675.59;5039913;28;20439;-63
2021/11/22 05:24:05;;;;;;;6.93;2.95;;;;;;;3.09;100.00;101675.66;5041395;28;20155;-63
2021/11/22 05:26:34;;;;;;;9.57;2.30;;;;;;;3.16;100.00;101684.06;5043610;28;20091;-63
2021/11/22 05:29:04;;;;;;;4.03;1.98;;;;;;;3.20;100.00;101689.06;5036610;28;20103;-63
2021/11/22 05:31:33;;;;;;;6.43;2.42;;;;;;;3.20;100.00;101691.69;5044243;28;20375;-63
2021/11/22 05:34:01;;;;;;;6.03;2.78;;;;;;;3.16;100.00;101692.84;5036570;28;20049;-64
2021/11/22 05:36:29;;;;;;;3.08;2.03;;;;;;;3.26;100.00;101690.47;5045154;28;20433;-63
2021/11/22 05:38:57;;;;;;;3.55;2.28;;;;;;;3.13;100.00;101702.72;5041708;28;20114;-64
2021/11/22 05:41:25;;;;;;;3.42;2.47;;;;;;;3.07;100.00;101694.22;5045101;28;20049;-63
2021/11/22 05:43:54;;;;;;;8.88;3.20;;;;;;;3.02;100.00;101701.59;5040715;28;20341;-63
2021/11/22 05:46:22;;;;;;;5.70;2.70;;;;;;;2.93;100.00;101708.28;5042773;28;20092;-63
2021/11/22 05:48:51;;;;;;;8.80;2.35;;;;;;;2.93;100.00;101710.91;5041208;28;20380;-63
2021/11/22 05:51:19;;;;;;;7.15;2.65;;;;;;;2.99;100.00;101712.34;5041886;28;20368;-64
2021/11/22 05:53:48;;;;;;;4.60;2.25;;;;;;;2.86;100.00;101720.13;5041532;28;20068;-63
2021/11/22 05:56:18;;;;;;;6.22;2.70;;;;;;;2.67;100.00;101723.00;5042070;28;20037;-63
2021/11/22 05:58:46;;;;;;;4.78;2.72;;;;;;;2.75;100.00;101731.31;5040148;28;20038;-63
2021/11/22 06:01:15;;;;;;;7.30;2.35;;;;;;;2.86;100.00;101727.19;5045481;28;20044;-63
2021/11/22 06:03:43;;;;;;;5.47;2.72;;;;;;;2.79;100.00;101731.97;5037822;28;20439;-63
2021/11/22 06:06:11;;;;;;;7.20;3.22;;;;;;;2.62;100.00;101735.59;5039308;28;20506;-64
2021/11/22 06:08:39;;;;;;;6.47;2.85;;;;;;;2.51;100.00;101745.91;5043056;28;20057;-63
2021/11/22 06:11:07;;;;;;;7.72;2.75;;;;;;;2.53;100.00;101752.81;5042594;28;20370;-63
2021/11/22 06:13:35;;;;;;;6.43;2.80;;;;;;;2.46;100.00;101756.72;5039614;28;20436;-63
2021/11/22 06:16:03;;;;;;;6.88;2.83;;;;;;;2.19;100.00;101759.97;5041606;28;20537;-63
2021/11/22 06:18:33;;;;;;;6.95;3.20;;;;;;;2.20;100.00;101760.84;5041345;28;20436;-64
2021/11/22 06:21:01;;;;;;;6.25;2.78;;;;;;;2.27;100.00;101762.19;5040574;28;20041;-63
2021/11/22 06:23:29;;;;;;;4.88;2.90;;;;;;;2.16;100.00;101775.13;5036745;28;20968;-64
2021/11/22 06:25:57;;;;;;;5.90;2.58;;;;;;;2.33;100.00;101769.75;5041273;28;20371;-63
2021/11/22 06:28:25;;;;;;;4.97;2.97;;;;;;;2.13;100.00;101775.31;5034408;28;20242;-63
2021/11/22 06:30:53;;;;;;;5.88;2.85;;;;;;;2.11;100.00;101770.09;5040989;28;20048;-63
2021/11/22 06:33:21;;;;;;;6.32;3.15;;;;;;;2.12;100.00;101779.72;5037361;28;20041;-64
2021/11/22 06:35:50;;;;;;;7.22;2.75;;;;;;;1.92;100.00;101788.72;5040773;28;20391;-64
2021/11/22 06:38:19;;;;;;;7.60;2.90;;;;;;;1.79;100.00;101792.94;5041333;28;20049;-64
2021/11/22 06:40:47;;;;;;;4.63;2.65;;;;;;;1.70;100.00;101799.53;5039157;28;20036;-63
2021/11/22 06:43:15;;;;;;;5.40;2.72;;;;;;;1.72;100.00;101801.16;5040627;28;20064;-64
2021/11/22 06:45:43;;;;;;;8.30;2.90;;;;;;;1.80;100.00;101799.91;5040078;28;20440;-64
2021/11/22 06:48:11;;;;;;;6.22;3.13;;;;;;;1.83;100.00;101800.59;5040732;28;20033;-64
2021/11/22 06:50:38;;;;;;;8.05;3.65;;;;;;;1.78;100.00;101812.31;5040506;28;20049;-64
2021/11/22 06:53:08;;;;;;;8.30;3.33;;;;;;;1.93;100.00;101816.75;5039130;28;20114;-63
2021/11/22 06:55:36;;;;;;;7.43;3.97;;;;;;;1.78;100.00;101814.94;5043111;28;20041;-64
2021/11/22 06:58:04;;;;;;;7.03;3.75;;;;;;;1.99;100.00;101815.59;5041658;28;20053;-63
2021/11/22 07:00:32;;;;;;;6.55;3.42;;;;;;;1.89;100.00;101831.88;5040794;28;20042;-64
2021/11/22 07:03:00;;;;;;;6.63;2.83;;;;;;;1.82;100.00;101832.28;5039161;28;20037;-63
2021/11/22 07:05:29;;;;;;;8.00;4.07;;;;;;;1.63;100.00;101830.63;5034455;28;20053;-64
2021/11/22 07:07:58;;;;;;;7.95;3.30;;;;;;;1.60;100.00;101841.28;5044080;28;20053;-64
2021/11/22 07:10:28;;;;;;;6.53;3.15;;;;;;;1.66;100.00;101846.25;5038748;28;20045;-64
2021/11/22 07:12:55;;;;;;;9.32;3.30;;;;;;;2.06;100.00;101851.19;5041756;28;20496;-63
2021/11/22 07:15:24;;;;;;;5.60;2.85;;;;;;;2.06;100.00;101852.03;5037680;28;20129;-63
2021/11/22 07:17:52;;;;;;;5.43;2.80;;;;;;;1.87;100.00;101864.50;5039518;28;20049;-63
2021/11/22 07:20:21;;;;;;;8.82;3.35;;;;;;;1.78;100.00;101867.63;5059363;28;20096;-64
2021/11/22 07:22:48;;;;;;;12.23;3.28;;;;;;;1.82;100.00;101872.63;5040237;28;20048;-64
2021/11/22 07:25:16;;;;;;;4.93;2.85;;;;;;;1.58;100.00;101874.78;5038491;28;20053;-64
2021/11/22 07:27:46;;;;;;;4.68;2.80;;;;;;;1.54;100.00;101883.75;5038010;28;20056;-63
2021/11/22 07:30:18;;;;;;;4.53;2.90;;;;;;;1.51;100.00;101886.53;5036520;28;20048;-64
2021/11/22 07:32:51;;;;;;;7.28;2.92;;;;;;;1.66;100.00;101898.94;5037668;28;20459;-64
2021/11/22 07:35:20;;;;;;;5.53;3.08;;;;;;;1.69;100.00;101898.78;5036671;28;20044;-64
2021/11/22 07:37:48;;;;;;;7.25;3.45;;;;;;;1.71;100.00;101901.31;5038512;28;20046;-64
2021/11/22 07:40:20;;;;;;;5.25;2.80;;;;;;;1.75;100.00;101909.94;5039916;28;20056;-64
2021/11/22 07:42:50;;;;;;;8.75;3.70;;;;;;;1.66;100.00;101909.47;5035529;28;20044;-64
2021/11/22 07:45:18;;;;;;;4.88;3.10;;;;;;;1.69;100.00;101919.84;5039964;28;20333;-64
2021/11/22 07:47:46;;;;;;;5.68;2.53;;;;;;;1.57;100.00;101925.72;5036868;28;20045;-64
2021/11/22 07:50:14;;;;;;;6.78;2.90;;;;;;;1.64;100.00;101927.09;5038234;28;20049;-64
2021/11/22 07:52:42;;;;;;;7.25;4.05;;;;;;;1.72;100.00;101934.63;5042618;28;20045;-64
2021/11/22 07:55:10;;;;;;;8.60;3.53;;;;;;;1.75;100.00;101928.38;5033056;28;20068;-63
2021/11/22 07:57:38;;;;;;;7.10;3.03;;;;;;;1.79;100.00;101938.66;5041464;28;20038;-64
2021/11/22 08:00:10;;;;;;;6.95;3.03;;;;;;;1.72;100.00;101937.28;5034404;28;20055;-64
2021/11/22 08:02:38;;;;;;;10.52;3.88;;;;;;;1.87;100.00;101943.53;5034595;28;20041;-66
2021/11/22 08:05:08;;;;;;;6.13;3.00;;;;;;;1.95;100.00;101945.78;5035619;28;20072;-64
2021/11/22 08:07:37;;;;;;;6.05;3.33;;;;;;;1.97;100.00;101944.78;5033881;28;20049;-64
2021/11/22 08:10:16;;;;;;;13.57;3.97;;;;;;;2.10;100.00;101949.38;5037980;28;20064;-64
2021/11/22 08:12:44;;;;;;;8.45;3.45;;;;;;;2.14;100.00;101953.56;5034815;28;20088;-64
2021/11/22 08:15:13;;;;;;;9.07;3.53;;;;;;;2.20;100.00;101967.28;5036397;28;20057;-64
2021/11/22 08:17:43;;;;;;;8.02;3.92;;;;;;;2.30;100.00;101977.34;5037789;28;20044;-64
2021/11/22 08:20:12;;;;;;;7.03;3.25;;;;;;;2.46;100.00;101978.22;5035032;28;20237;-63
2021/11/22 08:22:40;;;;;;;10.68;4.70;;;;;;;2.57;100.00;101989.03;5040985;28;20053;-63
2021/11/22 08:25:10;;;;;;;5.20;2.92;;;;;;;2.72;100.00;101990.03;5035432;28;20317;-63
2021/11/22 08:27:38;;;;;;;12.13;3.67;;;;;;;2.85;100.00;101997.25;5039300;28;20376;-64
2021/11/22 08:30:08;;;;;;;7.57;3.90;;;;;;;2.99;100.00;101997.38;5036591;28;20042;-64
2021/11/22 08:32:38;;;;;;;5.97;3.22;;;;;;;3.12;100.00;101991.38;5034664;28;20068;-64
2021/11/22 08:35:08;;;;;;;9.73;4.00;;;;;;;3.24;100.00;101996.81;5040454;28;20336;-63
2021/11/22 08:37:36;;;;;;;5.82;3.00;;;;;;;3.36;100.00;102005.84;5042317;28;20266;-63
2021/11/22 08:40:06;;;;;;;7.68;3.42;;;;;;;3.39;100.00;102008.31;5040727;28;20449;-63
2021/11/22 08:42:34;;;;;;;14.18;3.67;;;;;;;3.47;100.00;102012.31;5040730;28;20033;-63
2021/11/22 08:45:03;;;;;;;9.98;4.72;;;;;;;3.44;100.00;102006.28;5040190;28;20052;-64
2021/11/22 08:47:31;;;;;;;5.47;2.65;;;;;;;3.62;100.00;102012.28;5044078;28;20060;-64
2021/11/22 08:50:01;;;;;;;4.88;2.70;;;;;;;3.74;100.00;102020.44;5039793;28;20049;-64
2021/11/22 08:52:31;;;;;;;5.03;2.88;;;;;;;3.74;100.00;102020.44;5042332;28;20039;-64
2021/11/22 08:54:59;;;;;;;5.57;3.33;;;;;;;3.77;100.00;102022.88;5041410;28;20067;-64
2021/11/22 08:57:28;;;;;;;4.43;2.97;;;;;;;3.79;100.00;102026.31;5044272;28;20048;-63
2021/11/22 08:59:55;;;;;;;12.40;3.58;;;;;;;3.90;100.00;102025.69;5045614;28;20098;-64
2021/11/22 09:02:23;;;;;;;9.60;3.00;;;;;;;3.94;100.00;102035.97;5039812;28;20037;-63
2021/11/22 09:04:52;;;;;;;6.85;3.08;;;;;;;4.09;100.00;102036.84;5038478;28;20041;-63
2021/11/22 09:07:21;;;;;;;7.60;3.25;;;;;;;4.11;100.00;102034.13;5042697;28;20048;-63
2021/11/22 09:09:49;;;;;;;5.65;2.90;;;;;;;4.28;100.00;102038.41;5036734;28;20082;-64
2021/11/22 09:12:17;;;;;;;6.00;2.47;;;;;;;4.08;100.00;102044.88;5044149;28;20048;-64
2021/11/22 09:14:45;;;;;;;6.45;3.38;;;;;;;4.28;100.00;102046.34;5037331;28;20041;-63
2021/11/22 09:17:12;;;;;;;8.35;3.75;;;;;;;4.46;100.00;102052.31;5043919;28;20049;-64
2021/11/22 09:19:41;;;;;;;6.35;2.90;;;;;;;4.51;100.00;102057.31;5041087;28;20044;-63
2021/11/22 09:22:11;;;;;;;7.10;3.30;;;;;;;4.71;100.00;102054.31;5041617;28;20095;-64
2021/11/22 09:24:42;;;;;;;6.50;2.67;;;;;;;4.73;100.00;102056.88;5037505;28;20057;-63
2021/11/22 09:27:10;;;;;;;3.30;2.03;;;;;;;4.71;100.00;102056.97;5036929;28;20037;-64
2021/11/22 09:29:38;;;;;;;7.85;3.50;;;;;;;4.64;100.00;102053.00;5044681;28;20168;-63
2021/11/22 09:32:07;;;;;;;7.10;2.70;;;;;;;4.84;100.00;102054.41;5038623;28;20484;-63
2021/11/22 09:34:35;;;;;;;6.90;2.88;;;;;;;4.80;100.00;102059.03;5036109;28;20152;-63
2021/11/22 09:37:03;;;;;;;3.10;2.03;;;;;;;4.49;100.00;102057.41;5039692;28;20356;-63
2021/11/22 09:39:31;;;;;;;7.38;3.35;;;;;;;4.35;100.00;102055.59;5039425;28;20049;-64
2021/11/22 09:42:05;;;;;;;7.57;2.83;;;;;;;4.52;100.00;102069.63;5041051;28;20048;-64
2021/11/22 09:44:33;;;;;;;5.82;2.85;;;;;;;4.42;100.00;102077.25;5041684;28;20045;-63
2021/11/22 09:47:02;;;;;;;4.75;2.92;;;;;;;4.36;100.00;102070.53;5043207;28;20056;-63
2021/11/22 09:49:30;;;;;;;5.90;3.00;;;;;;;4.51;100.00;102065.25;5040653;28;20420;-64
2021/11/22 09:51:58;;;;;;;6.57;3.05;;;;;;;4.67;100.00;102062.56;5037091;28;20417;-64
2021/11/22 09:54:26;;;;;;;6.43;2.85;;;;;;;4.68;100.00;102062.44;5045551;28;20091;-64
2021/11/22 09:56:54;;;;;;;8.43;2.85;;;;;;;5.08;100.00;102062.59;5041582;28;20340;-63
2021/11/22 09:59:24;;;;;;;8.20;3.75;;;;;;;5.44;100.00;102061.19;5041976;28;20052;-63
2021/11/22 10:01:53;;;;;;;4.80;2.65;;;;;;;5.35;100.00;102061.81;5039618;28;20041;-64
2021/11/22 10:04:22;;;;;;;7.50;2.42;;;;;;;5.66;100.00;102070.41;5042493;28;20321;-64
2021/11/22 10:06:51;;;;;;;7.93;2.67;;;;;;;5.67;100.00;102066.78;5041876;28;20041;-64
2021/11/22 10:09:39;;;;;;;6.07;2.53;;;;;;;6.18;100.00;102063.47;5043009;28;20045;-64
2021/11/22 10:12:10;;;;;;;3.55;1.80;;;;;;;6.49;100.00;102059.59;5037908;28;20029;-64
2021/11/22 10:14:41;;;;;;;4.68;1.95;;;;;;;6.52;100.00;102061.16;5036881;28;20037;-64
2021/11/22 10:17:27;;;;;;;5.78;2.60;;;;;;;6.71;100.00;102066.03;5037364;28;20120;-64
2021/11/22 10:20:16;;;;;;;6.50;2.42;;;;;;;7.19;100.00;102066.16;5040339;28;20048;-64
2021/11/22 10:22:47;;;;;;;5.47;1.83;;;;;;;6.96;100.00;102072.28;5044822;28;20041;-64
2021/11/22 10:25:24;;;;;;;8.48;2.28;;;;;;;6.69;100.00;102073.25;5040984;28;20395;-64
2021/11/22 10:27:54;;;;;;;3.72;1.50;;;;;;;6.73;100.00;102064.13;5042480;28;20057;-63
2021/11/22 10:30:27;;;;;;;4.50;1.52;;;;;;;6.92;100.00;102076.09;5041971;28;20049;-64
2021/11/22 10:32:55;;;;;;;4.18;1.80;;;;;;;6.96;100.00;102070.47;5040583;28;20356;-64
2021/11/22 10:35:25;;;;;;;3.05;1.73;;;;;;;7.47;100.00;102069.50;5038212;28;20041;-65
2021/11/22 10:37:55;;;;;;;6.43;1.70;;;;;;;7.80;100.00;102070.63;5039339;28;20051;-64
2021/11/22 10:40:23;;;;;;;5.25;1.50;;;;;;;6.91;100.00;102071.78;5044480;28;20068;-64
2021/11/22 10:42:51;;;;;;;2.50;1.38;;;;;;;7.58;100.00;102071.34;5039611;28;20048;-64
2021/11/22 10:45:26;;;;;;;3.60;1.80;;;;;;;7.21;100.00;102074.88;5037527;28;20453;-64
2021/11/22 10:47:57;;;;;;;5.47;1.50;;;;;;;6.78;100.00;102079.75;5039094;28;20060;-64
2021/11/22 10:50:27;;;;;;;4.85;1.45;;;;;;;6.50;100.00;102079.84;5036472;28;20045;-64
2021/11/22 10:53:01;;;;;;;3.35;1.92;;;;;;;6.60;100.00;102079.22;5041106;28;20049;-64
2021/11/22 10:55:30;;;;;;;2.28;1.35;;;;;;;6.69;100.00;102087.41;5041473;28;20052;-63
2021/11/22 10:58:00;;;;;;;2.75;1.10;;;;;;;6.69;100.00;102083.88;5036333;28;20463;-64
2021/11/22 11:00:30;;;;;;;3.85;1.52;;;;;;;6.78;100.00;102077.94;5042187;28;20099;-64
2021/11/22 11:02:59;;;;;;;1.38;1.05;;;;;;;6.42;100.00;102082.19;5039128;28;20303;-65
2021/11/22 11:05:28;;;;;;;2.03;1.00;;;;;;;6.18;100.00;102080.25;5037143;28;20139;-64
2021/11/22 11:07:59;;;;;;;4.78;1.17;;;;;;;6.00;100.00;102073.53;5042063;28;20348;-65
2021/11/22 11:10:27;;;;;;;1.88;0.98;;;;;;;6.13;100.00;102071.75;5038534;28;20041;-65
2021/11/22 11:12:56;;;;;;;6.47;1.13;;;;;;;6.06;100.00;102064.31;5043450;28;20040;-64
2021/11/22 11:15:25;;;;;;;1.00;0.90;;;;;;;5.70;100.00;102074.56;5039576;28;20588;-64
2021/11/22 11:17:54;;;;;;;3.17;1.42;;;;;;;5.78;100.00;102074.06;5037940;28;20060;-64
2021/11/22 11:20:23;;;;;;;1.80;0.65;;;;;;;5.77;100.00;102080.31;5038164;28;20049;-64
2021/11/22 11:22:52;;;;;;;4.63;1.42;;;;;;;5.82;100.00;102079.03;5040233;28;20041;-64
2021/11/22 11:25:22;;;;;;;1.38;0.95;;;;;;;5.85;100.00;102073.56;5037337;28;20048;-64
2021/11/22 11:27:50;;;;;;;4.13;1.05;;;;;;;5.61;100.00;102078.66;5036836;28;20056;-64
2021/11/22 11:30:20;;;;;;;2.10;1.00;;;;;;;5.59;100.00;102067.31;5039671;28;20041;-64
2021/11/22 11:32:50;;;;;;;1.45;1.00;;;;;;;5.63;100.00;102075.94;5034088;28;20425;-64